Terminal Aerodrome Forecast
Issued by NWS

Home | Current Version | Previous Version | Text Only | Print | Product List | Glossary On
Versions: 1 2 3 4 5 6 7 8 9 10 11 12 13 14 15 16 17 18 19 20 21 22 23 24 25 26 27
000
FTUS43 KDMX 111727
TAFMCW
TAF
KMCW 111727Z 1118/1218 17014G20KT P6SM FEW070 SCT200
     FM120000 15007KT P6SM SCT030 BKN070
     FM120900 15005KT P6SM VCTS SCT035CB BKN120
     FM121400 03006KT P6SM SCT040 BKN100=

USA.gov is the U.S. government's official web portal to all federal, state and local government web resources and services.